Time;durP1;ratioP1;P1;durP2;ratioP2;P2;SDS_P1;SDS_P2;PMS_P1;PMS_P2;Temp;Humidity;BMP_temperature;BMP_pressure;BME280_temperature;BME280_humidity;BME280_pressure;Samples;Min_cycle;Max_cycle;Signal;HPM_P1;HPM_P2
2023/07/02 00:00:13;;;;;;;0.40;0.40;;;;;;;15.52;92.55;96339.59;29395;227;63019;-62
2023/07/02 00:00:45;;;;;;;0.40;0.40;;;;;;;15.52;92.64;96340.38;29395;240;63004;-60
2023/07/02 00:01:16;;;;;;;0.40;0.40;;;;;;;15.54;92.37;96337.31;29394;218;64013;-63
2023/07/02 00:01:48;;;;;;;0.50;0.50;;;;;;;15.54;92.47;96343.59;29395;212;63004;-62
2023/07/02 00:02:20;;;;;;;0.40;0.40;;;;;;;15.53;93.08;96344.72;29395;232;63009;-60
2023/07/02 00:02:52;;;;;;;0.40;0.40;;;;;;;15.52;92.71;96345.06;29395;210;63004;-60
2023/07/02 00:03:26;;;;;;;0.40;0.40;;;;;;;15.52;92.66;96345.06;29394;234;64013;-61
2023/07/02 00:03:58;;;;;;;0.40;0.40;;;;;;;15.54;92.76;96345.50;29395;232;63004;-60
2023/07/02 00:04:29;;;;;;;0.50;0.50;;;;;;;15.57;92.19;96340.22;29395;199;63009;-62
2023/07/02 00:05:01;;;;;;;0.43;0.43;;;;;;;15.59;91.62;96345.34;29395;273;63005;-61
2023/07/02 00:05:33;;;;;;;0.40;0.40;;;;;;;15.60;91.58;96352.38;29395;380;63009;-64
2023/07/02 00:06:05;;;;;;;0.40;0.40;;;;;;;15.64;90.96;96342.37;29394;243;64009;-66
2023/07/02 00:06:40;;;;;;;0.50;0.50;;;;;;;15.63;90.76;96340.75;29394;197;64013;-61
2023/07/02 00:07:11;;;;;;;0.50;0.50;;;;;;;15.62;90.95;96344.63;29395;283;63005;-51
2023/07/02 00:07:47;;;;;;;0.50;0.50;;;;;;;15.62;90.86;96344.63;29395;203;63009;-64
2023/07/02 00:08:19;;;;;;;0.50;0.50;;;;;;;15.64;90.83;96342.37;29395;238;63004;-60
2023/07/02 00:08:50;;;;;;;0.40;0.40;;;;;;;15.66;90.64;96340.88;29394;295;64009;-63
2023/07/02 00:09:24;;;;;;;0.75;0.75;;;;;;;15.68;90.89;96348.75;29395;234;63004;-62
2023/07/02 00:09:55;;;;;;;0.50;0.50;;;;;;;15.67;90.61;96338.94;29394;348;64013;-62
2023/07/02 00:10:30;;;;;;;0.40;0.40;;;;;;;15.67;90.45;96349.87;29395;237;63004;-60
2023/07/02 00:11:01;;;;;;;0.40;0.40;;;;;;;15.65;90.80;96338.50;29395;220;63008;-60
2023/07/02 00:11:33;;;;;;;0.40;0.40;;;;;;;15.64;90.73;96345.09;29395;232;63004;-61
2023/07/02 00:12:05;;;;;;;0.40;0.40;;;;;;;15.63;90.62;96344.28;29395;235;63009;-61
2023/07/02 00:12:36;;;;;;;0.40;0.40;;;;;;;15.62;90.62;96345.44;29395;216;63005;-61
2023/07/02 00:13:11;;;;;;;0.40;0.40;;;;;;;15.62;90.37;96344.63;29395;237;63009;-62
2023/07/02 00:13:43;;;;;;;0.40;0.40;;;;;;;15.60;90.67;96341.44;29395;222;63005;-63
2023/07/02 00:14:15;;;;;;;0.40;0.40;;;;;;;15.61;90.80;96343.84;29395;336;63009;-62
2023/07/02 00:14:46;;;;;;;0.40;0.40;;;;;;;15.63;90.87;96346.22;29394;217;64009;-62
2023/07/02 00:15:17;;;;;;;0.40;0.40;;;;;;;15.62;90.58;96345.44;29395;227;63009;-60
2023/07/02 00:15:48;;;;;;;0.43;0.43;;;;;;;15.61;90.36;96343.03;29395;239;63004;-62
2023/07/02 00:16:23;;;;;;;0.40;0.40;;;;;;;15.59;90.92;96343.41;29395;220;63009;-51
2023/07/02 00:16:54;;;;;;;0.40;0.40;;;;;;;15.58;90.77;96343.75;29395;202;63004;-62
2023/07/02 00:17:25;;;;;;;0.43;0.43;;;;;;;15.55;91.17;96336.19;29395;297;63009;-64
2023/07/02 00:17:57;;;;;;;0.40;0.40;;;;;;;15.54;91.11;96342.78;29395;229;63004;-60
2023/07/02 00:18:33;;;;;;;0.40;0.40;;;;;;;15.55;91.57;96338.91;29395;229;63008;-62
2023/07/02 00:19:05;;;;;;;0.43;0.43;;;;;;;15.55;91.43;96344.38;29395;220;63004;-62
2023/07/02 00:19:36;;;;;;;0.45;0.45;;;;;;;15.55;91.28;96338.91;29395;258;63009;-61
2023/07/02 00:20:14;;;;;;;0.40;0.40;;;;;;;15.54;91.25;96343.59;29394;212;64009;-62
2023/07/02 00:20:46;;;;;;;0.40;0.40;;;;;;;15.56;91.00;96345.97;29395;239;63009;-53
2023/07/02 00:21:19;;;;;;;0.40;0.40;;;;;;;15.57;90.93;96344.88;29395;232;63005;-61
2023/07/02 00:21:53;;;;;;;0.40;0.40;;;;;;;15.56;90.46;96346.81;29395;358;63009;-62
2023/07/02 00:22:24;;;;;;;0.40;0.40;;;;;;;15.57;90.69;96348.41;29394;321;64009;-60
2023/07/02 00:22:56;;;;;;;0.40;0.40;;;;;;;15.56;90.34;96345.97;29395;208;63009;-63
2023/07/02 00:23:27;;;;;;;0.40;0.40;;;;;;;15.55;90.69;96349.84;29394;227;64009;-62
2023/07/02 00:24:00;;;;;;;0.40;0.40;;;;;;;15.52;90.49;96345.84;29395;199;63009;-60
2023/07/02 00:24:32;;;;;;;0.40;0.40;;;;;;;15.52;90.95;96350.53;29394;224;64004;-63
2023/07/02 00:25:04;;;;;;;0.40;0.40;;;;;;;15.51;91.41;96351.66;29395;333;63009;-60
2023/07/02 00:25:37;;;;;;;0.40;0.40;;;;;;;15.48;91.58;96344.13;29394;310;64009;-63
2023/07/02 00:26:08;;;;;;;0.40;0.40;;;;;;;15.46;91.83;96346.41;29395;261;63008;-63
2023/07/02 00:26:43;;;;;;;0.40;0.40;;;;;;;15.46;91.93;96352.66;29395;229;63004;-61
2023/07/02 00:27:14;;;;;;;0.40;0.40;;;;;;;15.44;92.06;96349.47;29395;232;63009;-52
2023/07/02 00:27:46;;;;;;;0.40;0.40;;;;;;;15.41;92.48;96345.47;29395;400;63005;-62
2023/07/02 00:28:17;;;;;;;0.40;0.40;;;;;;;15.40;92.50;96349.34;29395;236;63009;-62
2023/07/02 00:28:49;;;;;;;0.40;0.40;;;;;;;15.40;92.25;96354.81;29395;346;63005;-62
2023/07/02 00:29:20;;;;;;;0.40;0.40;;;;;;;15.39;92.54;96347.75;29395;221;63009;-60
2023/07/02 00:29:52;;;;;;;0.40;0.40;;;;;;;15.40;92.50;96343.06;29395;244;63005;-61
2023/07/02 00:30:24;;;;;;;0.40;0.40;;;;;;;15.40;92.21;96343.88;29394;226;64013;-62
2023/07/02 00:30:58;;;;;;;0.40;0.40;;;;;;;15.40;92.10;96343.06;29395;216;63004;-62
2023/07/02 00:31:29;;;;;;;0.40;0.40;;;;;;;15.40;91.68;96348.53;29395;246;63009;-62
2023/07/02 00:32:02;;;;;;;0.40;0.40;;;;;;;15.39;91.71;96353.22;29395;197;63004;-61
2023/07/02 00:32:33;;;;;;;0.40;0.40;;;;;;;15.39;91.87;96346.94;29394;320;64009;-61
2023/07/02 00:33:04;;;;;;;0.40;0.40;;;;;;;15.37;92.37;96335.53;29394;206;64009;-51
2023/07/02 00:33:35;;;;;;;0.40;0.40;;;;;;;15.36;92.32;96342.94;29395;206;63008;-59
2023/07/02 00:34:07;;;;;;;0.40;0.40;;;;;;;15.36;92.33;96342.94;29395;213;63004;-63
2023/07/02 00:34:38;;;;;;;0.40;0.40;;;;;;;15.35;92.39;96341.34;29395;199;63009;-61
2023/07/02 00:35:10;;;;;;;0.40;0.40;;;;;;;15.35;92.34;96344.06;29394;202;64009;-62
2023/07/02 00:35:41;;;;;;;0.40;0.40;;;;;;;15.34;92.12;96345.22;29394;354;64014;-61
2023/07/02 00:36:14;;;;;;;0.40;0.40;;;;;;;15.35;92.55;96346.00;29394;228;64009;-61
2023/07/02 00:36:46;;;;;;;0.40;0.40;;;;;;;15.34;92.44;96339.75;29395;197;63009;-60
2023/07/02 00:37:18;;;;;;;0.40;0.40;;;;;;;15.34;92.47;96344.41;29395;200;63005;-52
2023/07/02 00:37:51;;;;;;;0.40;0.40;;;;;;;15.36;92.82;96342.16;29395;225;63009;-60
2023/07/02 00:38:25;;;;;;;0.40;0.40;;;;;;;15.38;92.65;96348.88;29395;197;63005;-60
2023/07/02 00:38:57;;;;;;;0.40;0.40;;;;;;;15.38;92.62;96350.81;29395;227;63009;-62
2023/07/02 00:39:29;;;;;;;0.40;0.40;;;;;;;15.39;92.89;96350.47;29395;199;63004;-63
2023/07/02 00:40:00;;;;;;;0.43;0.43;;;;;;;15.40;92.20;96343.06;29395;198;63009;-61
2023/07/02 00:40:31;;;;;;;0.40;0.40;;;;;;;15.42;92.37;96346.28;29395;197;63004;-60
2023/07/02 00:41:04;;;;;;;0.40;0.40;;;;;;;15.46;91.32;96341.72;29394;218;64013;-61
2023/07/02 00:41:35;;;;;;;0.40;0.40;;;;;;;15.48;91.39;96344.13;29395;221;63004;-59
2023/07/02 00:42:08;;;;;;;0.40;0.40;;;;;;;15.51;90.69;96343.47;29395;213;63009;-61
2023/07/02 00:42:39;;;;;;;0.40;0.40;;;;;;;15.51;90.88;96338.00;29395;216;63005;-59
2023/07/02 00:43:12;;;;;;;0.40;0.40;;;;;;;15.54;90.29;96343.59;29395;202;63009;-61
2023/07/02 00:43:44;;;;;;;0.40;0.40;;;;;;;15.58;89.33;96338.28;29395;402;63005;-61
2023/07/02 00:44:15;;;;;;;0.40;0.40;;;;;;;15.61;89.59;96338.38;29395;247;63009;-61
2023/07/02 00:44:47;;;;;;;0.40;0.40;;;;;;;15.60;89.08;96341.44;29395;209;63005;-62
2023/07/02 00:45:22;;;;;;;0.40;0.40;;;;;;;15.61;89.17;96337.56;29394;213;64013;-61
2023/07/02 00:45:53;;;;;;;0.40;0.40;;;;;;;15.61;89.07;96338.38;29395;222;63004;-62
2023/07/02 00:46:25;;;;;;;0.40;0.40;;;;;;;15.61;88.96;96346.56;29395;220;63009;-51
2023/07/02 00:46:57;;;;;;;0.35;0.35;;;;;;;15.61;89.48;96346.56;29395;197;63004;-64
2023/07/02 00:47:34;;;;;;;0.40;0.40;;;;;;;15.59;89.28;96342.59;29395;224;63009;-61
2023/07/02 00:48:15;;;;;;;0.40;0.40;;;;;;;15.59;89.20;96339.88;29395;197;63004;-59
2023/07/02 00:48:49;;;;;;;0.40;0.40;;;;;;;15.55;89.21;96336.19;29395;261;63025;-61
2023/07/02 00:49:21;;;;;;;0.40;0.40;;;;;;;15.56;89.29;96335.03;29395;231;63005;-61
2023/07/02 00:49:53;;;;;;;0.40;0.40;;;;;;;15.55;89.46;96341.66;29395;291;63020;-59
2023/07/02 00:50:26;;;;;;;0.40;0.40;;;;;;;15.55;89.38;96338.91;29394;212;64009;-60
2023/07/02 00:50:57;;;;;;;0.40;0.40;;;;;;;15.54;89.32;96338.12;29394;343;64013;-64
2023/07/02 00:51:33;;;;;;;0.40;0.40;;;;;;;15.54;89.39;96348.25;29395;213;63005;-65
2023/07/02 00:52:05;;;;;;;0.40;0.40;;;;;;;15.59;89.00;96339.88;29395;216;63009;-59
2023/07/02 00:52:36;;;;;;;0.40;0.40;;;;;;;15.61;88.99;96343.03;29395;230;63005;-60
2023/07/02 00:53:08;;;;;;;0.40;0.40;;;;;;;15.60;88.81;96352.38;29395;211;63009;-60
2023/07/02 00:53:39;;;;;;;0.40;0.40;;;;;;;15.60;89.14;96346.91;29395;229;63004;-60
2023/07/02 00:54:10;;;;;;;0.40;0.40;;;;;;;15.62;88.20;96352.84;29395;239;63022;-61
2023/07/02 00:54:42;;;;;;;0.40;0.40;;;;;;;15.60;88.30;96355.13;29395;218;63004;-62
2023/07/02 00:55:14;;;;;;;0.40;0.40;;;;;;;15.58;88.59;96350.00;29395;290;63008;-60
2023/07/02 00:55:45;;;;;;;0.40;0.40;;;;;;;15.57;88.87;96353.09;29395;274;63000;-52
2023/07/02 00:56:17;;;;;;;0.40;0.40;;;;;;;15.53;88.84;96347.44;29394;227;64014;-61
2023/07/02 00:56:48;;;;;;;0.40;0.40;;;;;;;15.52;89.04;96350.53;29395;199;63005;-60
2023/07/02 00:57:20;;;;;;;0.40;0.40;;;;;;;15.49;89.40;96353.94;29395;272;63009;-53
2023/07/02 00:57:52;;;;;;;0.40;0.40;;;;;;;15.50;89.11;96350.84;29395;226;63005;-63
2023/07/02 00:58:23;;;;;;;0.40;0.40;;;;;;;15.50;88.69;96353.59;29395;224;63009;-63
2023/07/02 00:59:01;;;;;;;0.40;0.40;;;;;;;15.49;88.87;96351.19;29395;238;63016;-62
2023/07/02 00:59:37;;;;;;;0.45;0.45;;;;;;;15.48;88.57;96344.13;29395;206;63009;-61
2023/07/02 01:00:13;;;;;;;0.40;0.40;;;;;;;15.45;88.38;96350.28;29395;232;63005;-62
2023/07/02 01:00:45;;;;;;;0.40;0.40;;;;;;;15.48;88.18;96347.66;29395;222;63009;-61
2023/07/02 01:01:21;;;;;;;0.47;0.47;;;;;;;15.49;88.06;96345.72;29394;209;64009;-61
2023/07/02 01:01:52;;;;;;;0.40;0.40;;;;;;;15.51;88.18;96351.66;29395;214;63009;-64
2023/07/02 01:02:25;;;;;;;0.52;0.52;;;;;;;15.56;87.10;96354.19;29395;231;63004;-60
2023/07/02 01:02:58;;;;;;;0.40;0.40;;;;;;;15.56;87.25;96351.44;29395;301;63008;-61
2023/07/02 01:03:32;;;;;;;0.50;0.50;;;;;;;15.56;87.20;96351.44;29395;215;63004;-61
2023/07/02 01:04:09;;;;;;;0.40;0.40;;;;;;;15.54;87.39;96353.72;29395;217;63009;-61
2023/07/02 01:04:49;;;;;;;0.50;0.50;;;;;;;15.51;87.92;96355.19;29394;233;64009;-61
2023/07/02 01:05:21;;;;;;;0.40;0.40;;;;;;;15.50;87.72;96358.25;29439;386;63009;-66
2023/07/02 01:05:52;;;;;;;0.50;0.50;;;;;;;15.53;87.67;96349.38;29371;230;64009;-62
2023/07/02 01:06:26;;;;;;;0.50;0.50;;;;;;;15.53;87.21;96352.13;29395;310;63009;-61
2023/07/02 01:06:58;;;;;;;0.40;0.40;;;;;;;15.52;87.69;96362.25;29395;344;63005;-62
2023/07/02 01:07:29;;;;;;;0.40;0.40;;;;;;;15.49;87.78;96356.66;29395;197;63009;-60
2023/07/02 01:08:06;;;;;;;0.43;0.43;;;;;;;15.46;87.88;96357.34;29395;206;63004;-61
2023/07/02 01:08:44;;;;;;;0.43;0.43;;;;;;;15.43;88.21;96354.12;29394;204;64013;-62
2023/07/02 01:09:18;;;;;;;0.45;0.45;;;;;;;15.40;nan;96349.34;29395;205;63004;-63
2023/07/02 01:09:50;;;;;;;0.50;0.50;;;;;;;15.40;88.52;96354.81;29395;206;63009;-53
2023/07/02 01:10:24;;;;;;;0.50;0.50;;;;;;;15.40;88.50;96354.81;29395;204;63004;-60
2023/07/02 01:10:56;;;;;;;0.50;0.50;;;;;;;15.39;88.67;96353.22;29395;305;63008;-62
2023/07/02 01:11:40;;;;;;;0.50;0.50;;;;;;;15.45;87.68;96355.75;29395;342;63005;-62
2023/07/02 01:12:12;;;;;;;0.45;0.45;;;;;;;15.45;87.54;96356.53;29395;222;63009;-61
2023/07/02 01:12:45;;;;;;;0.40;0.40;;;;;;;15.47;87.67;96364.41;29394;331;64009;-60
2023/07/02 01:13:21;;;;;;;0.40;0.40;;;;;;;15.46;87.75;96358.13;29395;249;63009;-61
2023/07/02 01:13:56;;;;;;;0.40;0.40;;;;;;;15.48;88.22;96357.78;29394;240;64009;-60
2023/07/02 01:14:50;;;;;;;0.40;0.40;;;;;;;15.45;nan;96353.00;29395;212;63018;-62
2023/07/02 01:15:22;;;;;;;0.45;0.45;;;;;;;15.46;87.93;96357.34;29395;210;63004;-62
2023/07/02 01:15:53;;;;;;;0.40;0.40;;;;;;;15.45;88.05;96350.28;29395;232;63019;-51
2023/07/02 01:16:30;;;;;;;0.40;0.40;;;;;;;15.43;88.14;96359.59;29394;235;64009;-60
2023/07/02 01:17:03;;;;;;;0.40;0.40;;;;;;;15.41;88.03;96356.41;29395;208;63024;-61
2023/07/02 01:17:41;;;;;;;0.40;0.40;;;;;;;15.41;88.30;96345.47;29394;260;64009;-60
2023/07/02 01:18:14;;;;;;;0.40;0.40;;;;;;;15.41;87.92;96350.13;29394;229;64013;-60
2023/07/02 01:18:46;;;;;;;0.40;0.40;;;;;;;15.41;88.27;96350.94;29395;225;63005;-63
2023/07/02 01:19:40;;;;;;;0.40;0.40;;;;;;;15.41;88.12;96356.41;29395;296;63009;-62
2023/07/02 01:20:12;;;;;;;0.40;0.40;;;;;;;15.40;88.09;96351.28;29395;202;63013;-59
2023/07/02 01:20:47;;;;;;;0.40;0.40;;;;;;;15.39;88.19;96349.69;29395;237;63009;-62
2023/07/02 01:21:19;;;;;;;0.40;0.40;;;;;;;15.40;88.44;96351.28;29395;196;63005;-54
2023/07/02 01:21:51;;;;;;;0.40;0.40;;;;;;;15.41;87.97;96355.59;29394;297;64013;-62
2023/07/02 01:22:28;;;;;;;0.40;0.40;;;;;;;15.41;87.90;96356.41;29395;213;63004;-60
2023/07/02 01:23:03;;;;;;;0.40;0.40;;;;;;;15.40;87.87;96354.00;29394;338;64009;-61
2023/07/02 01:23:35;;;;;;;0.40;0.40;;;;;;;15.42;87.76;96355.28;29395;198;63004;-63
2023/07/02 01:24:07;;;;;;;0.40;0.40;;;;;;;15.42;87.22;96363.47;29395;235;63009;-62
2023/07/02 01:24:41;;;;;;;0.40;0.40;;;;;;;15.41;87.57;96356.41;29395;202;63004;-61
2023/07/02 01:25:16;;;;;;;0.43;0.43;;;;;;;15.39;87.92;96358.69;29395;315;63008;-61
2023/07/02 01:25:47;;;;;;;0.40;0.40;;;;;;;15.37;88.51;96360.16;29395;240;63005;-60
2023/07/02 01:26:19;;;;;;;0.40;0.40;;;;;;;15.35;88.34;96362.41;29395;210;63009;-63
2023/07/02 01:26:51;;;;;;;0.40;0.40;;;;;;;15.33;88.46;96368.22;29394;233;64009;-62
2023/07/02 01:27:23;;;;;;;0.40;0.40;;;;;;;15.31;88.67;96366.94;29395;210;63009;-61
2023/07/02 01:27:55;;;;;;;0.40;0.40;;;;;;;15.31;88.66;96366.94;29395;288;63005;-62
2023/07/02 01:28:36;;;;;;;0.40;0.40;;;;;;;15.31;88.68;96362.28;29394;228;64013;-62
2023/07/02 01:29:20;;;;;;;0.40;0.40;;;;;;;15.31;88.30;96367.75;29395;261;63005;-60
2023/07/02 01:29:52;;;;;;;0.40;0.40;;;;;;;15.25;88.17;96366.34;29395;199;63009;-63
2023/07/02 01:30:25;;;;;;;0.40;0.40;;;;;;;15.28;88.43;96368.41;29395;215;63004;-62
2023/07/02 01:30:57;;;;;;;0.40;0.40;;;;;;;15.27;88.69;96372.28;29395;269;63009;-61
2023/07/02 01:31:28;;;;;;;0.40;0.40;;;;;;;15.28;88.88;96373.87;29395;269;63004;-60
2023/07/02 01:31:59;;;;;;;0.40;0.40;;;;;;;15.27;88.84;96375.03;29395;248;63009;-52
2023/07/02 01:32:31;;;;;;;0.40;0.40;;;;;;;15.26;88.89;96370.69;29395;255;63004;-61
2023/07/02 01:33:05;;;;;;;0.40;0.40;;;;;;;15.24;89.18;96370.25;29395;210;63009;-62
2023/07/02 01:33:36;;;;;;;0.40;0.40;;;;;;;15.22;89.42;96372.50;29394;208;64009;-62
2023/07/02 01:34:09;;;;;;;0.40;0.40;;;;;;;15.20;89.53;96366.59;29395;285;63009;-62
2023/07/02 01:34:40;;;;;;;0.40;0.40;;;;;;;15.19;89.33;96364.97;29395;235;63005;-62
2023/07/02 01:35:13;;;;;;;0.47;0.47;;;;;;;15.17;89.57;96361.78;29394;199;64013;-61
2023/07/02 01:35:45;;;;;;;0.40;0.40;;;;;;;15.16;89.90;96364.84;29395;228;63005;-61
2023/07/02 01:36:16;;;;;;;0.40;0.40;;;;;;;15.15;89.88;96364.06;29395;205;63005;-63
2023/07/02 01:36:48;;;;;;;0.40;0.40;;;;;;;15.15;89.79;96364.06;29395;308;63005;-61
2023/07/02 01:37:19;;;;;;;0.40;0.40;;;;;;;15.14;89.42;96361.66;29394;197;64005;-61
2023/07/02 01:37:51;;;;;;;0.50;0.50;;;;;;;15.14;89.57;96362.44;29395;309;63004;-62
2023/07/02 01:38:22;;;;;;;0.40;0.40;;;;;;;15.15;88.99;96353.13;29395;328;63009;-61
2023/07/02 01:38:54;;;;;;;0.40;0.40;;;;;;;15.16;89.19;96362.12;29394;208;64009;-63
2023/07/02 01:39:25;;;;;;;0.40;0.40;;;;;;;15.16;89.11;96359.38;29395;370;63014;-60
2023/07/02 01:39:57;;;;;;;0.40;0.40;;;;;;;15.16;88.92;96354.72;29395;226;63004;-61
2023/07/02 01:40:28;;;;;;;0.43;0.43;;;;;;;15.17;89.10;96361.78;29395;207;63016;-62
2023/07/02 01:41:01;;;;;;;0.43;0.43;;;;;;;15.17;88.84;96350.84;29395;197;63005;-60
2023/07/02 01:41:54;;;;;;;0.50;0.50;;;;;;;15.17;89.00;96352.78;29395;236;63009;-61
2023/07/02 01:42:25;;;;;;;0.40;0.40;;;;;;;15.16;88.93;96346.53;29394;197;64009;-61
2023/07/02 01:42:58;;;;;;;0.40;0.40;;;;;;;15.17;88.72;96350.84;29395;211;63009;-61
2023/07/02 01:43:29;;;;;;;0.40;0.40;;;;;;;15.17;88.50;96344.59;29395;299;63005;-63
2023/07/02 01:44:01;;;;;;;0.40;0.40;;;;;;;15.16;88.75;96343.78;29394;214;64013;-63
2023/07/02 01:44:32;;;;;;;0.40;0.40;;;;;;;15.16;88.79;96341.06;29395;223;63005;-60
2023/07/02 01:45:05;;;;;;;0.40;0.40;;;;;;;15.15;89.01;96347.66;29395;245;63009;-62
2023/07/02 01:45:38;;;;;;;0.40;0.40;;;;;;;15.15;89.40;96344.13;29394;200;64009;-61
2023/07/02 01:46:12;;;;;;;0.50;0.50;;;;;;;15.14;89.03;96337.84;29395;203;63009;-61
2023/07/02 01:46:48;;;;;;;0.45;0.45;;;;;;;15.13;89.19;96338.19;29395;230;63004;-60
2023/07/02 01:47:19;;;;;;;0.40;0.40;;;;;;;15.12;89.48;96337.41;29395;224;63008;-63
2023/07/02 01:47:51;;;;;;;0.40;0.40;;;;;;;15.10;89.69;96345.13;29395;230;63004;-61
2023/07/02 01:48:22;;;;;;;0.40;0.40;;;;;;;15.09;89.54;96338.06;29395;200;63009;-58
2023/07/02 01:48:56;;;;;;;0.40;0.40;;;;;;;15.09;89.79;96346.25;29395;239;63005;-60
2023/07/02 01:49:29;;;;;;;0.40;0.40;;;;;;;15.09;89.87;96343.53;29395;294;63009;-62
2023/07/02 01:50:00;;;;;;;0.40;0.40;;;;;;;15.09;89.46;96343.53;29395;210;63005;-61
2023/07/02 01:50:32;;;;;;;0.40;0.40;;;;;;;15.09;89.44;96343.53;29395;228;63009;-62
2023/07/02 01:51:03;;;;;;;0.40;0.40;;;;;;;15.10;89.81;96345.13;29394;233;64009;-62
2023/07/02 01:51:35;;;;;;;0.40;0.40;;;;;;;15.09;89.59;96338.88;29395;222;63009;-61
2023/07/02 01:52:06;;;;;;;0.40;0.40;;;;;;;15.10;89.65;96339.66;29395;266;63005;-61
2023/07/02 01:52:38;;;;;;;0.40;0.40;;;;;;;15.09;90.12;96338.06;29395;214;63009;-51
2023/07/02 01:53:09;;;;;;;0.40;0.40;;;;;;;15.07;90.31;96341.13;29395;298;63004;-52
2023/07/02 01:53:40;;;;;;;0.40;0.40;;;;;;;15.06;90.26;96339.53;29395;197;63009;-61
2023/07/02 01:54:12;;;;;;;0.40;0.40;;;;;;;15.05;90.26;96342.59;29395;234;63004;-60
2023/07/02 01:54:44;;;;;;;0.40;0.40;;;;;;;15.03;90.55;96339.41;29395;225;63009;-50
2023/07/02 01:55:17;;;;;;;0.40;0.40;;;;;;;15.02;90.60;96343.25;29395;210;63004;-60
2023/07/02 01:55:51;;;;;;;0.40;0.40;;;;;;;15.01;91.89;96341.66;29395;325;63009;-61
2023/07/02 01:56:22;;;;;;;0.40;0.40;;;;;;;14.98;92.17;96343.13;29394;344;64009;-51
2023/07/02 01:56:54;;;;;;;0.40;0.40;;;;;;;14.97;91.96;96352.47;29395;230;63009;-51
2023/07/02 01:57:25;;;;;;;0.40;0.40;;;;;;;14.97;92.00;96352.47;29394;236;64009;-61
2023/07/02 01:57:58;;;;;;;0.40;0.40;;;;;;;14.96;91.89;96347.31;29395;204;63009;-62
2023/07/02 01:58:29;;;;;;;0.40;0.40;;;;;;;14.96;92.12;96352.78;29395;220;63005;-62
2023/07/02 01:59:00;;;;;;;0.40;0.40;;;;;;;14.95;92.06;96354.72;29395;221;63009;-51
2023/07/02 01:59:32;;;;;;;0.40;0.40;;;;;;;14.95;91.93;96362.91;29395;267;63005;-51
2023/07/02 02:00:04;;;;;;;0.40;0.40;;;;;;;14.96;92.03;96358.25;29395;199;63009;-61
2023/07/02 02:00:36;;;;;;;0.40;0.40;;;;;;;14.94;92.70;96358.59;29395;234;63004;-60
2023/07/02 02:01:07;;;;;;;0.40;0.40;;;;;;;14.92;93.04;96358.13;29395;298;63020;-60
2023/07/02 02:01:42;;;;;;;0.85;0.85;;;;;;;14.91;93.08;96363.91;29395;222;63015;-62
2023/07/02 02:02:14;;;;;;;0.40;0.40;;;;;;;14.90;93.09;96362.34;29394;234;64013;-62
2023/07/02 02:02:45;;;;;;;0.40;0.40;;;;;;;14.89;93.35;96360.75;29395;217;63004;-62
2023/07/02 02:03:19;;;;;;;0.40;0.40;;;;;;;14.88;93.44;96364.59;29395;228;63009;-61
2023/07/02 02:03:51;;;;;;;0.40;0.40;;;;;;;14.86;93.75;96364.13;29395;220;63007;-63
2023/07/02 02:04:23;;;;;;;0.40;0.40;;;;;;;14.85;94.48;96362.53;29394;230;64009;-62
2023/07/02 02:04:56;;;;;;;0.40;0.40;;;;;;;14.82;94.35;96365.94;29395;225;63013;-61
2023/07/02 02:05:27;;;;;;;0.40;0.40;;;;;;;14.81;94.36;96361.59;29395;208;63009;-51
2023/07/02 02:05:59;;;;;;;0.40;0.40;;;;;;;14.81;94.30;96364.31;29395;199;63005;-51
2023/07/02 02:06:31;;;;;;;0.40;0.40;;;;;;;14.81;94.13;96364.31;29395;255;63009;-51
2023/07/02 02:07:03;;;;;;;0.40;0.40;;;;;;;14.79;95.38;96363.84;29395;235;63016;-63
2023/07/02 02:07:35;;;;;;;0.40;0.40;;;;;;;14.77;95.70;96364.19;29394;240;64013;-62
2023/07/02 02:08:07;;;;;;;0.40;0.40;;;;;;;14.75;95.63;96361.78;29395;227;63004;-63
2023/07/02 02:08:39;;;;;;;0.40;0.40;;;;;;;14.75;95.14;96355.53;29394;226;64013;-61
2023/07/02 02:09:10;;;;;;;0.40;0.40;;;;;;;14.75;95.26;96361.00;29395;204;63004;-51
2023/07/02 02:09:41;;;;;;;0.40;0.40;;;;;;;14.74;95.34;96365.66;29395;307;63009;-51
2023/07/02 02:10:14;;;;;;;0.40;0.40;;;;;;;14.75;95.07;96361.78;29395;232;63004;-62
2023/07/02 02:10:45;;;;;;;0.40;0.40;;;;;;;14.74;95.43;96362.91;29394;204;64009;-62
2023/07/02 02:11:17;;;;;;;0.40;0.40;;;;;;;14.74;95.05;96365.66;29395;217;63005;-61
2023/07/02 02:11:50;;;;;;;0.40;0.40;;;;;;;14.77;95.02;96368.84;29395;209;63009;-62
2023/07/02 02:12:21;;;;;;;0.40;0.40;;;;;;;14.78;94.62;96373.19;29395;213;63016;-62
2023/07/02 02:12:52;;;;;;;0.40;0.40;;;;;;;14.79;94.50;96366.59;29395;289;63016;-60
2023/07/02 02:13:24;;;;;;;0.40;0.40;;;;;;;14.82;94.04;96371.38;29395;283;63005;-62
2023/07/02 02:13:56;;;;;;;0.50;0.50;;;;;;;14.83;93.72;96371.06;29394;309;64013;-60
2023/07/02 02:14:28;;;;;;;0.40;0.40;;;;;;;14.84;93.59;96375.38;29395;307;63005;-62
2023/07/02 02:14:59;;;;;;;0.40;0.40;;;;;;;14.85;93.57;96371.53;29395;206;63009;-62
2023/07/02 02:15:31;;;;;;;0.40;0.40;;;;;;;14.86;93.34;96366.88;29395;212;63004;-61
2023/07/02 02:16:03;;;;;;;0.40;0.40;;;;;;;14.89;93.16;96369.72;29395;254;63023;-61
2023/07/02 02:16:36;;;;;;;0.40;0.40;;;;;;;14.91;92.60;96369.38;29395;236;63004;-61
2023/07/02 02:17:08;;;;;;;0.40;0.40;;;;;;;14.94;92.42;96368.72;29395;202;63009;-61
2023/07/02 02:17:42;;;;;;;0.40;0.40;;;;;;;14.96;91.58;96371.91;29395;214;63004;-60
2023/07/02 02:18:14;;;;;;;0.40;0.40;;;;;;;14.98;91.27;96369.66;29394;276;64013;-61
2023/07/02 02:18:46;;;;;;;0.40;0.40;;;;;;;14.99;91.22;96365.78;29395;346;63005;-62
2023/07/02 02:19:17;;;;;;;0.40;0.40;;;;;;;15.00;91.03;96370.12;29395;265;63009;-62
2023/07/02 02:19:51;;;;;;;0.40;0.40;;;;;;;15.02;91.14;96371.38;29395;243;63005;-61
2023/07/02 02:20:23;;;;;;;0.40;0.40;;;;;;;15.04;91.32;96368.31;29395;240;63018;-62
2023/07/02 02:20:57;;;;;;;0.40;0.40;;;;;;;15.04;91.30;96371.06;29394;238;64009;-62
2023/07/02 02:21:30;;;;;;;0.40;0.40;;;;;;;15.06;90.99;96375.06;29395;232;63009;-61
2023/07/02 02:22:01;;;;;;;0.40;0.40;;;;;;;15.09;91.18;96373.59;29395;225;63009;-62
2023/07/02 02:22:33;;;;;;;0.40;0.40;;;;;;;15.08;91.07;96374.72;29394;206;64013;-51
2023/07/02 02:23:05;;;;;;;0.40;0.40;;;;;;;15.10;91.00;96377.91;29395;225;63009;-62
2023/07/02 02:23:38;;;;;;;0.40;0.40;;;;;;;15.09;90.74;96365.37;29395;231;63018;-61
2023/07/02 02:24:10;;;;;;;0.40;0.40;;;;;;;15.10;90.98;96366.97;29394;281;64008;-62
2023/07/02 02:24:42;;;;;;;0.40;0.40;;;;;;;15.12;90.91;96369.38;29395;218;63008;-60
2023/07/02 02:25:13;;;;;;;0.40;0.40;;;;;;;15.12;90.72;96364.72;29394;233;64004;-63
2023/07/02 02:25:45;;;;;;;0.40;0.40;;;;;;;15.13;90.52;96371.78;29395;236;63008;-62
2023/07/02 02:26:16;;;;;;;0.40;0.40;;;;;;;15.13;90.71;96366.31;29394;209;64009;-61
2023/07/02 02:26:51;;;;;;;0.40;0.40;;;;;;;15.15;90.65;96374.97;29395;236;63009;-62
2023/07/02 02:27:22;;;;;;;0.40;0.40;;;;;;;15.17;90.68;96364.53;29395;329;63005;-61
2023/07/02 02:27:55;;;;;;;0.40;0.40;;;;;;;15.20;90.54;96371.25;29395;228;63009;-59
2023/07/02 02:28:27;;;;;;;0.40;0.40;;;;;;;15.17;90.46;96367.25;29394;214;64009;-61
2023/07/02 02:28:58;;;;;;;0.40;0.40;;;;;;;15.21;90.18;96372.84;29395;202;63009;-62
2023/07/02 02:29:29;;;;;;;0.40;0.40;;;;;;;15.21;89.94;96362.72;29395;213;63004;-60
2023/07/02 02:30:01;;;;;;;0.40;0.40;;;;;;;15.23;89.75;96365.91;29395;199;63009;-61
2023/07/02 02:30:32;;;;;;;0.40;0.40;;;;;;;15.22;89.59;96353.38;29395;196;63004;-62
2023/07/02 02:31:04;;;;;;;0.40;0.40;;;;;;;15.23;89.27;96355.00;29395;274;63009;-62
2023/07/02 02:31:35;;;;;;;0.40;0.40;;;;;;;15.23;89.25;96360.44;29395;223;63004;-61
2023/07/02 02:32:07;;;;;;;0.40;0.40;;;;;;;15.25;89.50;96358.16;29395;238;63008;-59
2023/07/02 02:32:38;;;;;;;0.40;0.40;;;;;;;15.25;89.43;96363.63;29395;216;63010;-61
2023/07/02 02:33:09;;;;;;;0.35;0.35;;;;;;;15.26;89.47;96357.03;29395;205;63009;-61
2023/07/02 02:33:40;;;;;;;0.40;0.40;;;;;;;15.26;89.48;96359.75;29394;327;64009;-59
2023/07/02 02:34:12;;;;;;;0.40;0.40;;;;;;;15.26;89.67;96351.56;29395;207;63009;-60
2023/07/02 02:34:44;;;;;;;0.40;0.40;;;;;;;15.27;89.59;96355.88;29395;279;63016;-60
2023/07/02 02:35:15;;;;;;;0.40;0.40;;;;;;;15.28;89.18;96351.22;29395;211;63009;-61
2023/07/02 02:35:46;;;;;;;0.40;0.40;;;;;;;15.28;88.79;96352.03;29395;214;63005;-61